sensor_id;sensor_type;location;lat;lon;timestamp;pressure;altitude;pressure_sealevel;temperature;humidity
46778;BME280;32536;47.128;8.746;2023-04-16T00:01:56;91551.84;;;7.75;52.96
46778;BME280;32536;47.128;8.746;2023-04-16T00:04:23;91559.88;;;7.68;53.11
46778;BME280;32536;47.128;8.746;2023-04-16T00:06:50;91564.81;;;7.66;53.51
46778;BME280;32536;47.128;8.746;2023-04-16T00:09:16;91566.00;;;7.54;53.57
46778;BME280;32536;47.128;8.746;2023-04-16T00:11:43;91566.44;;;7.42;53.21
46778;BME280;32536;47.128;8.746;2023-04-16T00:14:10;91577.13;;;7.27;53.83
46778;BME280;32536;47.128;8.746;2023-04-16T00:16:37;91575.66;;;7.15;54.27
46778;BME280;32536;47.128;8.746;2023-04-16T00:19:03;91574.13;;;7.07;54.24
46778;BME280;32536;47.128;8.746;2023-04-16T00:21:30;91571.88;;;6.98;53.73
46778;BME280;32536;47.128;8.746;2023-04-16T00:23:57;91577.94;;;6.95;53.41
46778;BME280;32536;47.128;8.746;2023-04-16T00:26:23;91576.44;;;6.94;53.92
46778;BME280;32536;47.128;8.746;2023-04-16T00:28:50;91582.53;;;6.91;53.66
46778;BME280;32536;47.128;8.746;2023-04-16T00:31:17;91581.41;;;6.92;54.08
46778;BME280;32536;47.128;8.746;2023-04-16T00:33:43;91575.28;;;6.95;54.28
46778;BME280;32536;47.128;8.746;2023-04-16T00:36:10;91585.94;;;7.02;54.29
46778;BME280;32536;47.128;8.746;2023-04-16T00:38:37;91581.00;;;7.08;54.09
46778;BME280;32536;47.128;8.746;2023-04-16T00:41:03;91584.00;;;7.14;53.77
46778;BME280;32536;47.128;8.746;2023-04-16T00:43:30;91582.47;;;7.20;54.05
46778;BME280;32536;47.128;8.746;2023-04-16T00:45:57;91588.94;;;7.26;53.28
46778;BME280;32536;47.128;8.746;2023-04-16T00:48:24;91582.09;;;7.29;54.12
46778;BME280;32536;47.128;8.746;2023-04-16T00:50:52;91578.25;;;7.33;53.28
46778;BME280;32536;47.128;8.746;2023-04-16T00:53:20;91576.34;;;7.37;53.22
46778;BME280;32536;47.128;8.746;2023-04-16T00:55:47;91579.00;;;7.41;52.92
46778;BME280;32536;47.128;8.746;2023-04-16T00:58:14;91580.13;;;7.47;53.13
46778;BME280;32536;47.128;8.746;2023-04-16T01:00:41;91574.03;;;7.50;52.74
46778;BME280;32536;47.128;8.746;2023-04-16T01:03:08;91574.00;;;7.54;53.00
46778;BME280;32536;47.128;8.746;2023-04-16T01:05:35;91566.38;;;7.56;53.36
46778;BME280;32536;47.128;8.746;2023-04-16T01:08:02;91574.41;;;7.52;53.36
46778;BME280;32536;47.128;8.746;2023-04-16T01:10:29;91575.94;;;7.50;53.28
46778;BME280;32536;47.128;8.746;2023-04-16T01:12:55;91568.69;;;7.47;53.04
46778;BME280;32536;47.128;8.746;2023-04-16T01:15:22;91572.13;;;7.47;52.76
46778;BME280;32536;47.128;8.746;2023-04-16T01:17:49;91568.34;;;7.48;52.83
46778;BME280;32536;47.128;8.746;2023-04-16T01:20:16;91578.22;;;7.48;53.02
46778;BME280;32536;47.128;8.746;2023-04-16T01:22:43;91574.03;;;7.47;52.81
46778;BME280;32536;47.128;8.746;2023-04-16T01:25:13;91572.91;;;7.44;53.47
46778;BME280;32536;47.128;8.746;2023-04-16T01:27:40;91572.53;;;7.46;52.82
46778;BME280;32536;47.128;8.746;2023-04-16T01:30:07;91567.56;;;7.44;53.21
46778;BME280;32536;47.128;8.746;2023-04-16T01:32:34;91558.03;;;7.43;53.41
46778;BME280;32536;47.128;8.746;2023-04-16T01:35:01;91570.63;;;7.43;53.42
46778;BME280;32536;47.128;8.746;2023-04-16T01:37:28;91569.88;;;7.42;53.05
46778;BME280;32536;47.128;8.746;2023-04-16T01:39:56;91569.09;;;7.42;53.47
46778;BME280;32536;47.128;8.746;2023-04-16T01:42:22;91568.38;;;7.37;53.48
46778;BME280;32536;47.128;8.746;2023-04-16T01:44:49;91569.53;;;7.29;54.40
46778;BME280;32536;47.128;8.746;2023-04-16T01:47:16;91572.94;;;7.22;53.61
46778;BME280;32536;47.128;8.746;2023-04-16T01:49:42;91570.69;;;7.21;53.54
46778;BME280;32536;47.128;8.746;2023-04-16T01:52:10;91569.94;;;7.20;54.59
46778;BME280;32536;47.128;8.746;2023-04-16T01:54:36;91581.72;;;7.19;53.79
46778;BME280;32536;47.128;8.746;2023-04-16T01:57:03;91583.25;;;7.17;54.42
46778;BME280;32536;47.128;8.746;2023-04-16T01:59:30;91580.19;;;7.15;54.66
46778;BME280;32536;47.128;8.746;2023-04-16T02:02:01;91579.06;;;7.16;54.77
46778;BME280;32536;47.128;8.746;2023-04-16T02:04:38;91580.94;;;7.22;53.90
46778;BME280;32536;47.128;8.746;2023-04-16T02:07:07;91584.78;;;7.21;54.25
46778;BME280;32536;47.128;8.746;2023-04-16T02:09:35;91583.63;;;7.19;54.10
46778;BME280;32536;47.128;8.746;2023-04-16T02:12:03;91580.59;;;7.17;54.21
46778;BME280;32536;47.128;8.746;2023-04-16T02:15:05;91587.81;;;7.20;56.63
46778;BME280;32536;47.128;8.746;2023-04-16T02:17:32;91585.53;;;7.22;54.33
46778;BME280;32536;47.128;8.746;2023-04-16T02:19:59;91581.34;;;7.21;54.12
46778;BME280;32536;47.128;8.746;2023-04-16T02:22:30;91581.34;;;7.21;54.22
46778;BME280;32536;47.128;8.746;2023-04-16T02:24:56;91582.13;;;7.18;54.32
46778;BME280;32536;47.128;8.746;2023-04-16T02:27:23;91583.25;;;7.17;54.39
46778;BME280;32536;47.128;8.746;2023-04-16T02:29:50;91588.56;;;7.20;54.44
46778;BME280;32536;47.128;8.746;2023-04-16T02:32:17;91585.91;;;7.17;54.48
46778;BME280;32536;47.128;8.746;2023-04-16T02:34:44;91584.41;;;7.09;55.21
46778;BME280;32536;47.128;8.746;2023-04-16T02:37:10;91594.66;;;7.07;54.75
46778;BME280;32536;47.128;8.746;2023-04-16T02:39:39;91592.78;;;7.03;54.60
46778;BME280;32536;47.128;8.746;2023-04-16T02:42:05;91593.16;;;7.05;53.52
46778;BME280;32536;47.128;8.746;2023-04-16T02:44:32;91595.81;;;7.09;55.00
46778;BME280;32536;47.128;8.746;2023-04-16T02:46:59;91586.31;;;7.12;54.24
46778;BME280;32536;47.128;8.746;2023-04-16T02:49:25;91591.25;;;7.17;54.17
46778;BME280;32536;47.128;8.746;2023-04-16T02:51:52;91592.00;;;7.17;54.30
46778;BME280;32536;47.128;8.746;2023-04-16T02:54:19;91591.63;;;7.15;55.08
46778;BME280;32536;47.128;8.746;2023-04-16T02:56:46;91588.97;;;7.12;54.54
46778;BME280;32536;47.128;8.746;2023-04-16T02:59:12;91595.44;;;7.11;54.46
46778;BME280;32536;47.128;8.746;2023-04-16T03:01:39;91597.72;;;7.09;54.32
46778;BME280;32536;47.128;8.746;2023-04-16T03:04:06;91589.72;;;7.12;54.05
46778;BME280;32536;47.128;8.746;2023-04-16T03:06:32;91586.31;;;7.12;54.86
46778;BME280;32536;47.128;8.746;2023-04-16T03:08:59;91593.53;;;7.11;54.25
46778;BME280;32536;47.128;8.746;2023-04-16T03:11:26;91588.59;;;7.10;54.97
46778;BME280;32536;47.128;8.746;2023-04-16T03:13:52;91595.81;;;7.09;54.34
46778;BME280;32536;47.128;8.746;2023-04-16T03:16:20;91588.19;;;7.11;54.18
46778;BME280;32536;47.128;8.746;2023-04-16T03:18:47;91590.13;;;7.11;54.14
46778;BME280;32536;47.128;8.746;2023-04-16T03:21:13;91583.25;;;7.13;54.64
46778;BME280;32536;47.128;8.746;2023-04-16T03:23:40;91585.91;;;7.17;54.26
46778;BME280;32536;47.128;8.746;2023-04-16T03:26:07;91594.66;;;7.17;54.49
46778;BME280;32536;47.128;8.746;2023-04-16T03:28:33;91594.25;;;7.22;54.54
46778;BME280;32536;47.128;8.746;2023-04-16T03:31:00;91598.44;;;7.27;54.44
46778;BME280;32536;47.128;8.746;2023-04-16T03:33:27;91602.25;;;7.33;53.94
46778;BME280;32536;47.128;8.746;2023-04-16T03:35:57;91591.22;;;7.39;53.60
46778;BME280;32536;47.128;8.746;2023-04-16T03:38:24;91596.53;;;7.42;54.34
46778;BME280;32536;47.128;8.746;2023-04-16T03:40:51;91595.34;;;7.43;53.91
46778;BME280;32536;47.128;8.746;2023-04-16T03:43:17;91600.69;;;7.47;53.60
46778;BME280;32536;47.128;8.746;2023-04-16T03:45:45;91593.06;;;7.49;53.35
46778;BME280;32536;47.128;8.746;2023-04-16T03:48:12;91607.91;;;7.53;53.65
46778;BME280;32536;47.128;8.746;2023-04-16T03:50:39;91604.09;;;7.55;53.57
46778;BME280;32536;47.128;8.746;2023-04-16T03:53:09;91606.00;;;7.54;54.32
46778;BME280;32536;47.128;8.746;2023-04-16T03:55:36;91606.00;;;7.58;53.41
46778;BME280;32536;47.128;8.746;2023-04-16T03:58:02;91601.44;;;7.58;53.92
46778;BME280;32536;47.128;8.746;2023-04-16T04:00:29;91605.63;;;7.59;53.58
46778;BME280;32536;47.128;8.746;2023-04-16T04:02:56;91601.78;;;7.64;53.95
46778;BME280;32536;47.128;8.746;2023-04-16T04:05:23;91595.69;;;7.67;53.94
46778;BME280;32536;47.128;8.746;2023-04-16T04:07:50;91599.47;;;7.73;53.39
46778;BME280;32536;47.128;8.746;2023-04-16T04:10:16;91608.19;;;7.77;53.59
46778;BME280;32536;47.128;8.746;2023-04-16T04:12:43;91605.16;;;7.82;53.42
46778;BME280;32536;47.128;8.746;2023-04-16T04:15:13;91602.09;;;7.84;53.77
46778;BME280;32536;47.128;8.746;2023-04-16T04:17:40;91607.44;;;7.84;53.41
46778;BME280;32536;47.128;8.746;2023-04-16T04:20:07;91610.84;;;7.88;53.86
46778;BME280;32536;47.128;8.746;2023-04-16T04:22:34;91610.06;;;7.91;53.88
46778;BME280;32536;47.128;8.746;2023-04-16T04:25:01;91605.09;;;7.90;53.40
46778;BME280;32536;47.128;8.746;2023-04-16T04:27:27;91607.44;;;7.84;53.99
46778;BME280;32536;47.128;8.746;2023-04-16T04:29:55;91606.66;;;7.83;54.20
46778;BME280;32536;47.128;8.746;2023-04-16T04:32:22;91613.16;;;7.86;53.70
46778;BME280;32536;47.128;8.746;2023-04-16T04:34:49;91609.31;;;7.87;54.14
46778;BME280;32536;47.128;8.746;2023-04-16T04:37:15;91607.81;;;7.86;53.76
46778;BME280;32536;47.128;8.746;2023-04-16T04:39:42;91612.75;;;7.84;54.42
46778;BME280;32536;47.128;8.746;2023-04-16T04:42:09;91617.31;;;7.87;53.83
46778;BME280;32536;47.128;8.746;2023-04-16T04:44:35;91621.09;;;7.90;54.03
46778;BME280;32536;47.128;8.746;2023-04-16T04:47:02;91627.59;;;7.96;54.14
46778;BME280;32536;47.128;8.746;2023-04-16T04:49:29;91623.41;;;7.95;53.93
46778;BME280;32536;47.128;8.746;2023-04-16T04:51:56;91623.38;;;7.98;53.56
46778;BME280;32536;47.128;8.746;2023-04-16T04:54:23;91624.50;;;8.01;53.87
46778;BME280;32536;47.128;8.746;2023-04-16T04:56:49;91615.72;;;8.04;54.08
46778;BME280;32536;47.128;8.746;2023-04-16T04:59:17;91618.00;;;8.06;54.12
46778;BME280;32536;47.128;8.746;2023-04-16T05:01:45;91621.81;;;8.05;54.26
46778;BME280;32536;47.128;8.746;2023-04-16T05:04:11;91622.56;;;8.05;54.31
46778;BME280;32536;47.128;8.746;2023-04-16T05:06:38;91623.69;;;8.08;53.72
46778;BME280;32536;47.128;8.746;2023-04-16T05:09:05;91630.56;;;8.09;54.29
46778;BME280;32536;47.128;8.746;2023-04-16T05:11:40;91630.94;;;8.11;54.48
46778;BME280;32536;47.128;8.746;2023-04-16T05:14:07;91633.59;;;8.18;53.93
46778;BME280;32536;47.128;8.746;2023-04-16T05:16:37;91628.97;;;8.22;54.04
46778;BME280;32536;47.128;8.746;2023-04-16T05:19:04;91632.34;;;8.30;53.63
46778;BME280;32536;47.128;8.746;2023-04-16T05:21:30;91636.94;;;8.33;53.84
46778;BME280;32536;47.128;8.746;2023-04-16T05:23:57;91636.50;;;8.38;53.78
46778;BME280;32536;47.128;8.746;2023-04-16T05:26:24;91636.91;;;8.40;53.52
46778;BME280;32536;47.128;8.746;2023-04-16T05:28:51;91640.31;;;8.41;53.60
46778;BME280;32536;47.128;8.746;2023-04-16T05:31:18;91645.28;;;8.39;53.52
46778;BME280;32536;47.128;8.746;2023-04-16T05:33:45;91647.59;;;8.37;53.47
46778;BME280;32536;47.128;8.746;2023-04-16T05:36:11;91650.28;;;8.33;53.71
46778;BME280;32536;47.128;8.746;2023-04-16T05:38:38;91646.09;;;8.28;53.84
46778;BME280;32536;47.128;8.746;2023-04-16T05:41:05;91647.25;;;8.27;53.94
46778;BME280;32536;47.128;8.746;2023-04-16T05:43:31;91649.56;;;8.25;54.33
46778;BME280;32536;47.128;8.746;2023-04-16T05:45:58;91646.91;;;8.22;54.23
46778;BME280;32536;47.128;8.746;2023-04-16T05:48:25;91657.19;;;8.20;53.79
46778;BME280;32536;47.128;8.746;2023-04-16T05:50:52;91653.03;;;8.15;54.00
46778;BME280;32536;47.128;8.746;2023-04-16T05:53:18;91662.16;;;8.14;54.33
46778;BME280;32536;47.128;8.746;2023-04-16T05:55:45;91656.47;;;8.15;54.49
46778;BME280;32536;47.128;8.746;2023-04-16T05:58:12;91656.81;;;8.21;54.33
46778;BME280;32536;47.128;8.746;2023-04-16T06:00:38;91667.47;;;8.25;53.90
46778;BME280;32536;47.128;8.746;2023-04-16T06:03:05;91664.41;;;8.26;54.25
46778;BME280;32536;47.128;8.746;2023-04-16T06:05:32;91668.59;;;8.27;53.98
46778;BME280;32536;47.128;8.746;2023-04-16T06:07:59;91671.28;;;8.24;53.65
46778;BME280;32536;47.128;8.746;2023-04-16T06:10:26;91670.53;;;8.20;54.10
46778;BME280;32536;47.128;8.746;2023-04-16T06:12:53;91668.69;;;8.09;53.74
46778;BME280;32536;47.128;8.746;2023-04-16T06:15:19;91666.06;;;7.98;54.06
46778;BME280;32536;47.128;8.746;2023-04-16T06:17:46;91672.56;;;7.87;54.08
46778;BME280;32536;47.128;8.746;2023-04-16T06:20:13;91669.19;;;7.75;54.42
46778;BME280;32536;47.128;8.746;2023-04-16T06:22:40;91673.38;;;7.69;54.42
46778;BME280;32536;47.128;8.746;2023-04-16T06:25:07;91677.97;;;7.61;54.62
46778;BME280;32536;47.128;8.746;2023-04-16T06:27:34;91680.63;;;7.58;53.95
46778;BME280;32536;47.128;8.746;2023-04-16T06:30:01;91685.97;;;7.54;54.49
46778;BME280;32536;47.128;8.746;2023-04-16T06:32:27;91692.44;;;7.53;54.40
46778;BME280;32536;47.128;8.746;2023-04-16T06:34:54;91688.63;;;7.54;53.96
46778;BME280;32536;47.128;8.746;2023-04-16T06:37:23;91691.69;;;7.52;54.69
46778;BME280;32536;47.128;8.746;2023-04-16T06:39:50;91689.03;;;7.52;54.11
46778;BME280;32536;47.128;8.746;2023-04-16T06:42:16;91685.97;;;7.54;53.76
46778;BME280;32536;47.128;8.746;2023-04-16T06:44:43;91692.06;;;7.51;54.03
46778;BME280;32536;47.128;8.746;2023-04-16T06:47:10;91690.56;;;7.46;54.61
46778;BME280;32536;47.128;8.746;2023-04-16T06:49:36;91699.69;;;7.42;54.16
46778;BME280;32536;47.128;8.746;2023-04-16T06:52:04;91691.69;;;7.38;54.55
46778;BME280;32536;47.128;8.746;2023-04-16T06:54:31;91700.84;;;7.33;54.29
46778;BME280;32536;47.128;8.746;2023-04-16T06:56:58;91705.03;;;7.27;54.25
46778;BME280;32536;47.128;8.746;2023-04-16T06:59:25;91707.69;;;7.24;54.14
46778;BME280;32536;47.128;8.746;2023-04-16T07:01:51;91715.31;;;7.21;54.26
46778;BME280;32536;47.128;8.746;2023-04-16T07:04:18;91708.09;;;7.18;54.62
46778;BME280;32536;47.128;8.746;2023-04-16T07:06:45;91706.16;;;7.22;54.95
46778;BME280;32536;47.128;8.746;2023-04-16T07:09:11;91711.13;;;7.28;54.94
46778;BME280;32536;47.128;8.746;2023-04-16T07:11:38;91716.47;;;7.35;54.90
46778;BME280;32536;47.128;8.746;2023-04-16T07:14:05;91710.75;;;7.40;54.83
46778;BME280;32536;47.128;8.746;2023-04-16T07:16:32;91714.94;;;7.41;54.44
46778;BME280;32536;47.128;8.746;2023-04-16T07:18:59;91719.88;;;7.43;54.52
46778;BME280;32536;47.128;8.746;2023-04-16T07:21:26;91716.06;;;7.44;54.52
46778;BME280;32536;47.128;8.746;2023-04-16T07:23:52;91719.13;;;7.46;54.70
46778;BME280;32536;47.128;8.746;2023-04-16T07:26:19;91712.63;;;7.50;54.52
46778;BME280;32536;47.128;8.746;2023-04-16T07:28:46;91711.50;;;7.51;54.76
46778;BME280;32536;47.128;8.746;2023-04-16T07:31:12;91715.69;;;7.52;53.84
46778;BME280;32536;47.128;8.746;2023-04-16T07:33:39;91713.41;;;7.51;53.86
46778;BME280;32536;47.128;8.746;2023-04-16T07:36:06;91719.88;;;7.53;53.69
46778;BME280;32536;47.128;8.746;2023-04-16T07:38:33;91709.97;;;7.54;54.15
46778;BME280;32536;47.128;8.746;2023-04-16T07:41:00;91713.41;;;7.55;53.51
46778;BME280;32536;47.128;8.746;2023-04-16T07:43:27;91720.63;;;7.54;53.90
46778;BME280;32536;47.128;8.746;2023-04-16T07:45:53;91720.25;;;7.48;53.91
46778;BME280;32536;47.128;8.746;2023-04-16T07:48:20;91722.94;;;7.45;54.06
46778;BME280;32536;47.128;8.746;2023-04-16T07:50:47;91726.34;;;7.42;53.78
46778;BME280;32536;47.128;8.746;2023-04-16T07:53:15;91728.63;;;7.43;54.25
46778;BME280;32536;47.128;8.746;2023-04-16T07:55:41;91730.53;;;7.46;54.03
46778;BME280;32536;47.128;8.746;2023-04-16T07:58:08;91725.97;;;7.47;54.07
46778;BME280;32536;47.128;8.746;2023-04-16T08:00:35;91732.06;;;7.47;54.46
46778;BME280;32536;47.128;8.746;2023-04-16T08:03:02;91738.16;;;7.51;54.27
46778;BME280;32536;47.128;8.746;2023-04-16T08:05:29;91744.25;;;7.52;54.21
46778;BME280;32536;47.128;8.746;2023-04-16T08:07:55;91733.59;;;7.56;54.16
46778;BME280;32536;47.128;8.746;2023-04-16T08:10:22;91743.88;;;7.57;53.99
46778;BME280;32536;47.128;8.746;2023-04-16T08:12:49;91746.13;;;7.62;53.99
46778;BME280;32536;47.128;8.746;2023-04-16T08:15:27;91746.53;;;7.68;54.75
46778;BME280;32536;47.128;8.746;2023-04-16T08:17:54;91750.31;;;7.78;53.47
46778;BME280;32536;47.128;8.746;2023-04-16T08:20:20;91758.66;;;7.83;53.62
46778;BME280;32536;47.128;8.746;2023-04-16T08:22:48;91761.34;;;7.87;53.83
46778;BME280;32536;47.128;8.746;2023-04-16T08:25:14;91757.16;;;7.86;53.89
46778;BME280;32536;47.128;8.746;2023-04-16T08:27:41;91760.19;;;7.84;53.60
46778;BME280;32536;47.128;8.746;2023-04-16T08:30:08;91762.13;;;7.84;53.96
46778;BME280;32536;47.128;8.746;2023-04-16T08:32:35;91761.34;;;7.83;54.36
46778;BME280;32536;47.128;8.746;2023-04-16T08:35:01;91761.72;;;7.85;54.09
46778;BME280;32536;47.128;8.746;2023-04-16T08:37:28;91767.44;;;7.88;54.51
46778;BME280;32536;47.128;8.746;2023-04-16T08:39:55;91762.84;;;7.92;53.87
46778;BME280;32536;47.128;8.746;2023-04-16T08:42:39;91769.34;;;7.91;54.44
46778;BME280;32536;47.128;8.746;2023-04-16T08:45:13;91768.97;;;7.89;54.13
46778;BME280;32536;47.128;8.746;2023-04-16T08:47:46;91768.97;;;7.89;54.58
46778;BME280;32536;47.128;8.746;2023-04-16T08:50:16;91764.00;;;7.94;54.67
46778;BME280;32536;47.128;8.746;2023-04-16T08:53:10;91771.22;;;8.01;54.75
46778;BME280;32536;47.128;8.746;2023-04-16T08:55:47;91778.09;;;8.09;54.39
46778;BME280;32536;47.128;8.746;2023-04-16T08:58:20;91761.69;;;8.14;54.33
46778;BME280;32536;47.128;8.746;2023-04-16T09:00:48;91775.75;;;8.18;54.03
46778;BME280;32536;47.128;8.746;2023-04-16T09:03:14;91774.22;;;8.25;53.82
46778;BME280;32536;47.128;8.746;2023-04-16T09:05:42;91765.47;;;8.24;54.14
46778;BME280;32536;47.128;8.746;2023-04-16T09:08:09;91769.66;;;8.25;54.30
46778;BME280;32536;47.128;8.746;2023-04-16T09:10:36;91775.34;;;8.31;53.97
46778;BME280;32536;47.128;8.746;2023-04-16T09:13:02;91771.91;;;8.34;54.07
46778;BME280;32536;47.128;8.746;2023-04-16T09:15:32;91771.53;;;8.32;54.64
46778;BME280;32536;47.128;8.746;2023-04-16T09:18:00;91769.63;;;8.32;54.33
46778;BME280;32536;47.128;8.746;2023-04-16T09:20:26;91773.03;;;8.37;54.37
46778;BME280;32536;47.128;8.746;2023-04-16T09:22:53;91782.19;;;8.43;54.46
46778;BME280;32536;47.128;8.746;2023-04-16T09:25:21;91777.59;;;8.51;53.87
46778;BME280;32536;47.128;8.746;2023-04-16T09:27:49;91783.69;;;8.55;54.10
46778;BME280;32536;47.128;8.746;2023-04-16T09:30:26;91783.69;;;8.58;54.33
46778;BME280;32536;47.128;8.746;2023-04-16T09:33:17;91782.13;;;8.64;54.99
46778;BME280;32536;47.128;8.746;2023-04-16T09:35:49;91785.91;;;8.74;54.37
46778;BME280;32536;47.128;8.746;2023-04-16T09:38:17;91792.75;;;8.83;54.00
46778;BME280;32536;47.128;8.746;2023-04-16T09:40:45;91791.56;;;8.87;53.92
46778;BME280;32536;47.128;8.746;2023-04-16T09:43:16;91787.72;;;8.92;54.36
46778;BME280;32536;47.128;8.746;2023-04-16T09:45:51;91789.63;;;8.95;54.67
46778;BME280;32536;47.128;8.746;2023-04-16T09:48:31;91788.47;;;8.96;54.23
46778;BME280;32536;47.128;8.746;2023-04-16T09:50:59;91793.06;;;8.92;54.20
46778;BME280;32536;47.128;8.746;2023-04-16T09:53:30;91791.56;;;8.87;54.01
46778;BME280;32536;47.128;8.746;2023-04-16T09:55:58;91794.25;;;8.84;53.75
46778;BME280;32536;47.128;8.746;2023-04-16T09:58:26;91790.44;;;8.81;54.18
46778;BME280;32536;47.128;8.746;2023-04-16T10:01:01;91790.44;;;8.77;54.56
46778;BME280;32536;47.128;8.746;2023-04-16T10:03:29;91792.38;;;8.73;54.42
46778;BME280;32536;47.128;8.746;2023-04-16T10:08:32;91795.47;;;8.72;54.48
46778;BME280;32536;47.128;8.746;2023-04-16T10:10:59;91802.34;;;8.69;54.97
46778;BME280;32536;47.128;8.746;2023-04-16T10:13:27;91795.47;;;8.68;54.82
46778;BME280;32536;47.128;8.746;2023-04-16T10:15:55;91805.38;;;8.68;54.34
46778;BME280;32536;47.128;8.746;2023-04-16T10:18:22;91803.09;;;8.66;54.46
46778;BME280;32536;47.128;8.746;2023-04-16T10:20:49;91803.47;;;8.68;54.62
46778;BME280;32536;47.128;8.746;2023-04-16T10:23:16;91798.13;;;8.72;54.48
46778;BME280;32536;47.128;8.746;2023-04-16T10:25:49;91803.47;;;8.75;54.90
46778;BME280;32536;47.128;8.746;2023-04-16T10:28:17;91798.09;;;8.79;54.74
46778;BME280;32536;47.128;8.746;2023-04-16T10:30:47;91800.38;;;8.80;54.55
46778;BME280;32536;47.128;8.746;2023-04-16T10:33:21;91804.56;;;8.81;54.75
46778;BME280;32536;47.128;8.746;2023-04-16T10:35:51;91811.03;;;8.84;54.95
46778;BME280;32536;47.128;8.746;2023-04-16T10:38:37;91804.88;;;8.91;54.66
46778;BME280;32536;47.128;8.746;2023-04-16T10:41:06;91800.28;;;8.99;54.44
46778;BME280;32536;47.128;8.746;2023-04-16T10:43:41;91802.94;;;9.06;54.69
46778;BME280;32536;47.128;8.746;2023-04-16T10:46:25;91801.38;;;9.12;54.67
46778;BME280;32536;47.128;8.746;2023-04-16T10:49:10;91807.81;;;9.18;54.80
46778;BME280;32536;47.128;8.746;2023-04-16T10:51:55;91801.31;;;9.23;55.43
46778;BME280;32536;47.128;8.746;2023-04-16T10:54:24;91803.19;;;9.26;54.27
46778;BME280;32536;47.128;8.746;2023-04-16T10:56:53;91807.00;;;9.25;54.45
46778;BME280;32536;47.128;8.746;2023-04-16T10:59:23;91798.63;;;9.23;54.25
46778;BME280;32536;47.128;8.746;2023-04-16T11:01:53;91799.44;;;9.16;54.17
46778;BME280;32536;47.128;8.746;2023-04-16T11:09:46;91799.47;;;9.09;54.29
46778;BME280;32536;47.128;8.746;2023-04-16T11:12:17;91797.56;;;9.13;54.07
46778;BME280;32536;47.128;8.746;2023-04-16T11:15:37;91797.56;;;9.13;54.69
46778;BME280;32536;47.128;8.746;2023-04-16T11:18:04;91804.78;;;9.16;54.20
46778;BME280;32536;47.128;8.746;2023-04-16T11:20:31;91796.34;;;9.18;54.58
46778;BME280;32536;47.128;8.746;2023-04-16T11:22:58;91797.50;;;9.17;54.19
46778;BME280;32536;47.128;8.746;2023-04-16T11:25:27;91806.28;;;9.21;54.39
46778;BME280;32536;47.128;8.746;2023-04-16T11:27:55;91804.72;;;9.27;54.04
46778;BME280;32536;47.128;8.746;2023-04-16T11:30:28;91802.41;;;9.29;54.25
46778;BME280;32536;47.128;8.746;2023-04-16T11:32:56;91805.06;;;9.33;54.40
46778;BME280;32536;47.128;8.746;2023-04-16T11:35:23;91806.97;;;9.32;54.37
46778;BME280;32536;47.128;8.746;2023-04-16T11:37:54;91804.31;;;9.28;54.97
46778;BME280;32536;47.128;8.746;2023-04-16T11:40:22;91803.91;;;9.30;54.44
46778;BME280;32536;47.128;8.746;2023-04-16T11:42:49;91802.75;;;9.35;54.38
46778;BME280;32536;47.128;8.746;2023-04-16T11:45:16;91804.28;;;9.36;54.50
46778;BME280;32536;47.128;8.746;2023-04-16T11:47:46;91806.53;;;9.41;54.33
46778;BME280;32536;47.128;8.746;2023-04-16T11:50:21;91804.56;;;9.49;54.53
46778;BME280;32536;47.128;8.746;2023-04-16T11:52:48;91805.28;;;9.56;54.87
46778;BME280;32536;47.128;8.746;2023-04-16T11:55:16;91806.03;;;9.57;54.19
46778;BME280;32536;47.128;8.746;2023-04-16T11:57:43;91804.91;;;9.54;53.94
46778;BME280;32536;47.128;8.746;2023-04-16T12:00:11;91803.81;;;9.44;54.01
46778;BME280;32536;47.128;8.746;2023-04-16T12:02:43;91809.25;;;9.34;54.38
46778;BME280;32536;47.128;8.746;2023-04-16T12:08:02;91805.09;;;9.29;54.24
46778;BME280;32536;47.128;8.746;2023-04-16T12:10:33;91813.84;;;9.33;54.96
46778;BME280;32536;47.128;8.746;2023-04-16T12:13:12;91814.97;;;9.32;54.84
46778;BME280;32536;47.128;8.746;2023-04-16T12:18:13;91813.13;;;9.25;54.51
46778;BME280;32536;47.128;8.746;2023-04-16T12:20:41;91811.59;;;9.24;54.33
46778;BME280;32536;47.128;8.746;2023-04-16T12:23:10;91812.00;;;9.23;54.72
46778;BME280;32536;47.128;8.746;2023-04-16T12:25:48;91816.56;;;9.22;54.67
46778;BME280;32536;47.128;8.746;2023-04-16T12:28:31;91816.59;;;9.19;55.76
46778;BME280;32536;47.128;8.746;2023-04-16T12:30:59;91812.00;;;9.23;54.32
46778;BME280;32536;47.128;8.746;2023-04-16T12:33:26;91821.16;;;9.25;54.30
46778;BME280;32536;47.128;8.746;2023-04-16T12:35:53;91814.66;;;9.26;54.13
46778;BME280;32536;47.128;8.746;2023-04-16T12:38:20;91815.41;;;9.27;54.33
46778;BME280;32536;47.128;8.746;2023-04-16T12:40:47;91820.00;;;9.26;54.57
46778;BME280;32536;47.128;8.746;2023-04-16T12:43:13;91824.19;;;9.24;54.95
46778;BME280;32536;47.128;8.746;2023-04-16T12:45:40;91816.97;;;9.21;54.82
46778;BME280;32536;47.128;8.746;2023-04-16T12:48:07;91820.44;;;9.14;55.05
46778;BME280;32536;47.128;8.746;2023-04-16T12:50:34;91826.19;;;9.09;54.98
46778;BME280;32536;47.128;8.746;2023-04-16T12:53:00;91820.44;;;9.10;55.26
46778;BME280;32536;47.128;8.746;2023-04-16T12:55:27;91826.16;;;9.12;55.14
46778;BME280;32536;47.128;8.746;2023-04-16T12:57:54;91819.66;;;9.17;54.75
46778;BME280;32536;47.128;8.746;2023-04-16T13:00:21;91823.09;;;9.18;54.93
46778;BME280;32536;47.128;8.746;2023-04-16T13:03:06;91822.34;;;9.17;57.01
46778;BME280;32536;47.128;8.746;2023-04-16T13:05:32;91821.94;;;9.15;55.05
46778;BME280;32536;47.128;8.746;2023-04-16T13:07:59;91824.22;;;9.17;54.90
46778;BME280;32536;47.128;8.746;2023-04-16T13:10:26;91828.06;;;9.19;54.79
46778;BME280;32536;47.128;8.746;2023-04-16T13:12:52;91828.78;;;9.23;55.22
46778;BME280;32536;47.128;8.746;2023-04-16T13:15:44;91824.59;;;9.22;57.19
46778;BME280;32536;47.128;8.746;2023-04-16T13:18:11;91825.72;;;9.25;55.19
46778;BME280;32536;47.128;8.746;2023-04-16T13:20:38;91831.03;;;9.28;54.73
46778;BME280;32536;47.128;8.746;2023-04-16T13:23:05;91817.25;;;9.34;54.93
46778;BME280;32536;47.128;8.746;2023-04-16T13:25:32;91825.25;;;9.37;55.28
46778;BME280;32536;47.128;8.746;2023-04-16T13:27:59;91829.44;;;9.42;54.76
46778;BME280;32536;47.128;8.746;2023-04-16T13:30:25;91824.47;;;9.44;54.85